Stewart International Airport Newburgh US
ICAO: KSWF
IATA: SWF
Category: Medium
Scheduled Services: Yes

Elevation: 491 ft
TransAlt. 18000 ft.

Airport Communications:
105 AW COMD POST:37.94
ATIS:124.575
NEW YORK CNTR:132.75
GND:121.9
AR OPS:38.5
ARMY OPS:49.75
TWR:121
UNICOM:122.95

KSWF Zoom In..

If you have problems with the map follow the link
https://www.worldairports.se/pages/airport.php?
ICAO=KSWF

Runways:

(A) RW 09 length 11817 ft width 150 ft
ILS 110.10 / hdg 92

(B) RW 16 length 6004 ft width 150 ft
---- / hdg 163

(C) RW 27 length 11817 ft width 150 ft
ILS 109.95 / hdg 272

(D) RW 34 length 6004 ft width 150 ft
---- / hdg 343

Location; KSWF
Day. 23 / Time. 17.45 Zulu
* Altimeter: 29.94
* Temperature: 15° c. 59°f.
* Wind from: 230° Speed 04 kn.
Dewpoint: 07° c.
Visibility: 20 Statute Miles.
Clouds: Scattered 4000 ft.

KSWF 231745Z 23004KT 20SM SCT040 15/07 A2994


Wind From 230°
Speed 04 kn.

 
 
jpsmedia.com for Web Design worldairports.se 2018   terms of use